createdAt,value
2023-05-15T00:00:37.593Z,15.53
2023-05-15T00:03:04.796Z,15.19
2023-05-15T00:05:31.882Z,15.76
2023-05-15T00:07:58.647Z,15.73
2023-05-15T00:10:25.378Z,15.87
2023-05-15T00:12:52.050Z,15.74
2023-05-15T00:15:18.683Z,15.64
2023-05-15T00:17:45.441Z,15.34
2023-05-15T00:20:12.583Z,15.10
2023-05-15T00:22:39.241Z,14.78
2023-05-15T00:25:06.578Z,14.69
2023-05-15T00:27:33.513Z,14.63
2023-05-15T00:30:00.353Z,14.61
2023-05-15T00:32:27.038Z,14.58
2023-05-15T00:34:53.720Z,14.48
2023-05-15T00:37:20.365Z,14.23
2023-05-15T00:39:47.117Z,14.30
2023-05-15T00:42:13.884Z,14.08
2023-05-15T00:44:41.393Z,13.94
2023-05-15T00:47:10.285Z,13.73
2023-05-15T00:49:37.967Z,13.65
2023-05-15T00:52:08.462Z,13.60
2023-05-15T00:54:35.614Z,13.57
2023-05-15T00:57:03.299Z,13.52
2023-05-15T00:59:31.004Z,13.50
2023-05-15T01:01:57.799Z,13.30
2023-05-15T01:04:24.901Z,13.44
2023-05-15T01:06:54.290Z,13.39
2023-05-15T01:09:24.247Z,13.44
2023-05-15T01:11:54.707Z,13.39
2023-05-15T01:14:21.718Z,13.39
2023-05-15T01:16:48.830Z,13.56
2023-05-15T01:19:16.019Z,13.57
2023-05-15T01:22:06.609Z,13.62
2023-05-15T01:24:52.082Z,13.60
2023-05-15T01:27:21.780Z,13.46
2023-05-15T01:30:08.186Z,13.35
2023-05-15T01:32:34.988Z,13.36
2023-05-15T01:35:19.298Z,13.34
2023-05-15T01:37:50.371Z,13.28
2023-05-15T01:40:19.965Z,13.15
2023-05-15T01:42:52.489Z,13.09
2023-05-15T01:45:21.548Z,13.00
2023-05-15T01:47:48.790Z,12.98
2023-05-15T01:50:17.859Z,12.94
2023-05-15T01:52:53.806Z,12.91
2023-05-15T01:55:21.482Z,13.01
2023-05-15T01:57:51.621Z,12.96
2023-05-15T02:00:18.803Z,12.81
2023-05-15T02:02:46.871Z,12.78
2023-05-15T02:05:14.285Z,12.69
2023-05-15T02:07:42.837Z,12.69
2023-05-15T02:10:11.043Z,12.58
2023-05-15T02:12:38.827Z,12.77
2023-05-15T02:15:07.522Z,12.88
2023-05-15T02:17:34.188Z,13.13
2023-05-15T02:20:00.932Z,13.19
2023-05-15T02:22:27.736Z,13.41
2023-05-15T02:24:54.569Z,13.41
2023-05-15T02:27:26.869Z,13.40
2023-05-15T02:30:31.232Z,13.63
2023-05-15T02:33:09.814Z,13.87
2023-05-15T02:35:57.543Z,13.80
2023-05-15T02:38:33.529Z,13.81
2023-05-15T02:41:00.920Z,14.34
2023-05-15T02:43:28.091Z,15.00
2023-05-15T02:45:56.702Z,15.81
2023-05-15T02:48:23.752Z,16.48
2023-05-15T02:50:52.400Z,16.62
2023-05-15T02:53:19.165Z,16.42
2023-05-15T02:55:45.864Z,16.75
2023-05-15T02:58:12.658Z,17.46
2023-05-15T03:00:39.319Z,18.07
2023-05-15T03:03:06.069Z,18.50
2023-05-15T03:05:32.706Z,17.86
2023-05-15T03:08:00.562Z,17.80
2023-05-15T03:10:27.319Z,17.57
2023-05-15T03:12:58.430Z,18.95
2023-05-15T03:15:25.600Z,19.37
2023-05-15T03:17:52.513Z,19.91
2023-05-15T03:20:19.328Z,20.43
2023-05-15T03:22:46.129Z,20.84
2023-05-15T03:25:15.522Z,20.31
2023-05-15T03:27:42.471Z,20.18
2023-05-15T03:30:10.312Z,20.87
2023-05-15T03:32:37.146Z,20.49
2023-05-15T03:35:04.589Z,20.66
2023-05-15T03:37:32.733Z,20.31
2023-05-15T03:39:59.703Z,18.97
2023-05-15T03:42:26.713Z,18.69
2023-05-15T03:44:53.424Z,17.90
2023-05-15T03:47:27.189Z,18.29
2023-05-15T03:49:53.888Z,18.91
2023-05-15T03:52:20.723Z,19.17
2023-05-15T03:54:47.838Z,19.20
2023-05-15T03:57:14.606Z,18.45
2023-05-15T03:59:41.633Z,18.52
2023-05-15T04:02:08.415Z,19.00
2023-05-15T04:04:35.534Z,19.95
2023-05-15T04:07:02.374Z,20.97
2023-05-15T04:09:28.996Z,22.50
2023-05-15T04:11:55.705Z,22.89
2023-05-15T04:14:22.791Z,23.93
2023-05-15T04:16:49.657Z,22.49
2023-05-15T04:19:16.786Z,21.87
2023-05-15T04:21:43.597Z,21.70
2023-05-15T04:24:10.335Z,20.76
2023-05-15T04:26:37.020Z,20.98
2023-05-15T04:29:04.912Z,20.45
2023-05-15T04:31:32.229Z,20.33
2023-05-15T04:33:59.137Z,20.40
2023-05-15T04:36:26.070Z,20.38
2023-05-15T04:38:52.719Z,20.67
2023-05-15T04:41:19.563Z,20.59
2023-05-15T04:43:46.650Z,21.00
2023-05-15T04:46:13.813Z,21.79
2023-05-15T04:48:40.672Z,21.64
2023-05-15T04:51:07.773Z,21.20
2023-05-15T04:53:34.572Z,21.99
2023-05-15T04:56:01.652Z,22.29
2023-05-15T04:58:28.406Z,22.95
2023-05-15T05:00:55.185Z,22.73
2023-05-15T05:03:21.815Z,22.58
2023-05-15T05:05:49.293Z,22.26
2023-05-15T05:08:15.873Z,22.86
2023-05-15T05:10:42.607Z,22.87
2023-05-15T05:13:09.372Z,22.60
2023-05-15T05:15:37.246Z,22.16
2023-05-15T05:18:04.261Z,22.63
2023-05-15T05:20:31.060Z,24.35
2023-05-15T05:22:57.942Z,24.29
2023-05-15T05:25:24.907Z,23.63
2023-05-15T05:27:52.569Z,24.70
2023-05-15T05:30:19.390Z,23.84
2023-05-15T05:32:46.208Z,24.41
2023-05-15T05:35:12.828Z,23.86
2023-05-15T05:37:41.265Z,24.31
2023-05-15T05:40:09.006Z,24.06
2023-05-15T05:42:35.866Z,23.50
2023-05-15T05:45:02.559Z,22.42
2023-05-15T05:47:29.330Z,22.20
2023-05-15T05:49:56.094Z,22.04
2023-05-15T05:52:22.852Z,22.43
2023-05-15T05:54:49.614Z,22.51
2023-05-15T05:57:16.325Z,21.82
2023-05-15T05:59:43.155Z,21.65
2023-05-15T06:02:10.094Z,21.96
2023-05-15T06:04:37.097Z,22.60
2023-05-15T06:07:04.006Z,22.07
2023-05-15T06:09:30.801Z,22.18
2023-05-15T06:11:57.509Z,22.08
2023-05-15T06:14:24.572Z,21.92
2023-05-15T06:16:51.400Z,21.93
2023-05-15T06:19:18.576Z,21.65
2023-05-15T06:21:45.608Z,21.84
2023-05-15T06:24:12.446Z,21.45
2023-05-15T06:26:39.065Z,21.68
2023-05-15T06:29:05.828Z,21.94
2023-05-15T06:31:32.849Z,22.21
2023-05-15T06:33:59.669Z,22.08
2023-05-15T06:36:26.374Z,22.51
2023-05-15T06:38:52.993Z,23.02
2023-05-15T06:41:19.701Z,22.75
2023-05-15T06:43:46.336Z,22.91
2023-05-15T06:46:16.313Z,22.60
2023-05-15T06:48:43.027Z,22.58
2023-05-15T06:51:09.760Z,22.56
2023-05-15T06:53:36.598Z,22.51
2023-05-15T06:56:03.512Z,22.90
2023-05-15T06:58:30.469Z,22.64
2023-05-15T07:00:58.738Z,22.43
2023-05-15T07:03:26.127Z,22.64
2023-05-15T07:05:53.735Z,22.63
2023-05-15T07:08:20.424Z,22.68
2023-05-15T07:10:48.536Z,23.07
2023-05-15T07:13:20.709Z,23.32
2023-05-15T07:15:47.561Z,22.88
2023-05-15T07:18:14.421Z,22.57
2023-05-15T07:20:41.280Z,22.88
2023-05-15T07:23:08.013Z,23.35
2023-05-15T07:25:34.690Z,23.42
2023-05-15T07:28:01.817Z,23.54
2023-05-15T07:30:28.624Z,23.43
2023-05-15T07:32:55.469Z,22.77
2023-05-15T07:35:22.178Z,22.68
2023-05-15T07:37:48.965Z,22.30
2023-05-15T07:40:15.701Z,22.50
2023-05-15T07:42:44.285Z,22.29
2023-05-15T07:45:11.277Z,22.18
2023-05-15T07:47:38.100Z,22.28
2023-05-15T07:50:05.149Z,22.76
2023-05-15T07:52:31.810Z,22.66
2023-05-15T07:54:58.479Z,23.00
2023-05-15T07:57:26.597Z,23.24
2023-05-15T07:59:53.636Z,22.94
2023-05-15T08:02:20.360Z,22.90
2023-05-15T08:04:49.662Z,22.79
2023-05-15T08:07:16.385Z,22.50
2023-05-15T08:09:43.146Z,22.50
2023-05-15T08:12:21.157Z,22.72
2023-05-15T08:14:52.986Z,22.94
2023-05-15T08:17:20.955Z,23.07
2023-05-15T08:19:48.651Z,23.00
2023-05-15T08:22:15.628Z,22.86
2023-05-15T08:24:42.523Z,22.96
2023-05-15T08:27:09.539Z,22.78
2023-05-15T08:29:39.247Z,22.81
2023-05-15T08:32:07.448Z,22.76
2023-05-15T08:34:34.283Z,22.66
2023-05-15T08:37:00.964Z,22.46
2023-05-15T08:39:29.007Z,22.67
2023-05-15T08:42:02.208Z,23.14
2023-05-15T08:44:28.862Z,23.08
2023-05-15T08:46:56.025Z,22.95
2023-05-15T08:49:32.016Z,23.12
2023-05-15T08:51:58.887Z,23.21
2023-05-15T08:54:25.643Z,23.11
2023-05-15T08:56:53.290Z,23.09
2023-05-15T08:59:20.312Z,23.00
2023-05-15T09:01:47.024Z,23.24
2023-05-15T09:04:13.724Z,23.69
2023-05-15T09:06:41.047Z,23.52
2023-05-15T09:09:09.633Z,23.55
2023-05-15T09:11:37.035Z,23.71
2023-05-15T09:14:04.811Z,23.52
2023-05-15T09:16:31.572Z,23.79
2023-05-15T09:19:00.022Z,24.24
2023-05-15T09:21:28.469Z,24.39
2023-05-15T09:24:19.517Z,24.32
2023-05-15T09:26:47.304Z,24.09
2023-05-15T09:29:18.870Z,24.49
2023-05-15T09:31:49.521Z,24.23
2023-05-15T09:34:16.363Z,24.23
2023-05-15T09:36:45.079Z,24.15
2023-05-15T09:39:12.268Z,24.44
2023-05-15T09:41:43.280Z,24.75
2023-05-15T09:44:21.557Z,24.93
2023-05-15T09:46:50.335Z,25.19
2023-05-15T09:49:17.921Z,25.00
2023-05-15T09:51:44.981Z,24.69
2023-05-15T09:54:16.075Z,24.66
2023-05-15T09:56:47.211Z,24.83
2023-05-15T09:59:19.132Z,24.12
2023-05-15T10:01:46.650Z,23.82
2023-05-15T10:04:14.114Z,23.64
2023-05-15T10:06:48.153Z,24.14
2023-05-15T10:09:15.716Z,24.33
2023-05-15T10:11:43.992Z,24.60
2023-05-15T10:14:12.607Z,24.64
2023-05-15T10:16:40.364Z,24.36
2023-05-15T10:19:09.122Z,24.63
2023-05-15T10:21:37.627Z,24.43
2023-05-15T10:24:05.123Z,24.58
2023-05-15T10:26:43.811Z,24.69
2023-05-15T10:29:14.912Z,24.97
2023-05-15T10:31:42.430Z,24.58
2023-05-15T10:34:10.092Z,24.70
2023-05-15T10:36:38.103Z,25.45
2023-05-15T10:39:06.002Z,24.54
2023-05-15T10:41:41.860Z,24.41
2023-05-15T10:44:08.629Z,24.27
2023-05-15T10:46:36.576Z,24.61
2023-05-15T10:49:03.540Z,24.29
2023-05-15T10:51:32.991Z,24.50
2023-05-15T10:54:01.375Z,24.67
2023-05-15T10:56:32.378Z,24.18
2023-05-15T10:59:06.150Z,24.38
2023-05-15T11:01:35.379Z,24.17
2023-05-15T11:04:08.782Z,24.22
2023-05-15T11:06:37.078Z,23.89
2023-05-15T11:09:27.438Z,23.72
2023-05-15T11:12:00.392Z,23.46
2023-05-15T11:14:28.726Z,23.71
2023-05-15T11:16:55.622Z,23.94
2023-05-15T11:19:57.897Z,23.94
2023-05-15T11:22:32.908Z,23.83
2023-05-15T11:25:09.360Z,23.81
2023-05-15T11:27:41.828Z,23.94
2023-05-15T11:30:16.138Z,23.95
2023-05-15T11:33:03.866Z,24.35
2023-05-15T11:35:46.730Z,24.16
2023-05-15T11:38:20.289Z,24.18
2023-05-15T11:40:47.808Z,24.41
2023-05-15T11:43:27.757Z,24.76
2023-05-15T11:46:07.581Z,24.67
2023-05-15T11:48:40.516Z,24.15
2023-05-15T11:51:21.325Z,24.09
2023-05-15T11:53:50.530Z,24.08
2023-05-15T11:56:19.953Z,24.10
2023-05-15T11:58:50.871Z,23.73
2023-05-15T12:01:17.646Z,23.88
2023-05-15T12:03:47.460Z,24.04
2023-05-15T12:06:14.432Z,24.16
2023-05-15T12:08:42.227Z,24.61
2023-05-15T12:11:09.370Z,25.26
2023-05-15T12:13:36.100Z,26.00
2023-05-15T12:16:03.854Z,26.56
2023-05-15T12:18:32.311Z,26.23
2023-05-15T12:20:59.205Z,26.29
2023-05-15T12:23:27.096Z,26.46
2023-05-15T12:25:58.914Z,26.17
2023-05-15T12:28:26.739Z,25.87
2023-05-15T12:30:54.397Z,25.67
2023-05-15T12:33:21.178Z,25.05
2023-05-15T12:35:54.956Z,25.58
2023-05-15T12:38:24.783Z,25.24
2023-05-15T12:40:53.833Z,25.35
2023-05-15T12:43:21.207Z,25.34
2023-05-15T12:45:52.622Z,25.53
2023-05-15T12:48:19.730Z,25.33
2023-05-15T12:50:46.973Z,25.42
2023-05-15T12:53:15.790Z,25.99
2023-05-15T12:55:44.437Z,24.97
2023-05-15T12:58:12.600Z,24.98
2023-05-15T13:00:42.216Z,24.93
2023-05-15T13:03:10.396Z,25.11
2023-05-15T13:05:38.237Z,25.47
2023-05-15T13:08:06.477Z,25.89
2023-05-15T13:10:34.603Z,25.84
2023-05-15T13:13:01.507Z,26.38
2023-05-15T13:15:33.450Z,25.88
2023-05-15T13:18:00.196Z,25.88
2023-05-15T13:20:33.547Z,26.03
2023-05-15T13:23:01.646Z,25.29
2023-05-15T13:25:30.134Z,25.10
2023-05-15T13:28:00.975Z,24.93
2023-05-15T13:30:28.559Z,25.14
2023-05-15T13:32:55.900Z,25.18
2023-05-15T13:35:23.194Z,25.25
2023-05-15T13:37:50.419Z,24.55
2023-05-15T13:40:17.081Z,24.74
2023-05-15T13:42:44.234Z,24.63
2023-05-15T13:45:13.082Z,24.56
2023-05-15T13:47:40.243Z,24.67
2023-05-15T13:50:08.615Z,24.60
2023-05-15T13:52:35.578Z,24.45
2023-05-15T13:55:02.417Z,24.36
2023-05-15T13:57:29.104Z,24.44
2023-05-15T13:59:55.835Z,24.42
2023-05-15T14:02:26.275Z,24.39
2023-05-15T14:04:55.913Z,24.55
2023-05-15T14:07:24.096Z,25.06
2023-05-15T14:09:51.354Z,25.44
2023-05-15T14:12:18.244Z,25.44
2023-05-15T14:14:48.209Z,24.96
2023-05-15T14:17:15.401Z,25.17
2023-05-15T14:19:42.087Z,25.12
2023-05-15T14:22:09.229Z,24.40
2023-05-15T14:24:35.925Z,24.09
2023-05-15T14:27:02.710Z,24.25
2023-05-15T14:29:29.716Z,23.84
2023-05-15T14:31:56.562Z,24.00
2023-05-15T14:34:23.715Z,24.16
2023-05-15T14:36:51.107Z,24.11
2023-05-15T14:39:18.252Z,24.17
2023-05-15T14:41:45.731Z,24.29
2023-05-15T14:44:12.352Z,24.33
2023-05-15T14:46:40.792Z,24.14
2023-05-15T14:49:07.599Z,24.54
2023-05-15T14:51:34.190Z,24.92
2023-05-15T14:54:00.954Z,24.90
2023-05-15T14:56:27.671Z,25.01
2023-05-15T14:58:54.502Z,25.00
2023-05-15T15:01:21.263Z,25.14
2023-05-15T15:03:48.285Z,25.74
2023-05-15T15:06:14.977Z,25.86
2023-05-15T15:08:42.874Z,25.58
2023-05-15T15:11:09.663Z,25.75
2023-05-15T15:13:36.420Z,26.39
2023-05-15T15:16:03.272Z,26.23
2023-05-15T15:18:30.049Z,26.21
2023-05-15T15:20:56.712Z,25.99
2023-05-15T15:23:23.425Z,25.70
2023-05-15T15:25:50.158Z,25.94
2023-05-15T15:28:17.307Z,25.99
2023-05-15T15:30:44.057Z,25.78
2023-05-15T15:33:10.829Z,25.73
2023-05-15T15:35:37.447Z,25.86
2023-05-15T15:38:05.475Z,25.43
2023-05-15T15:40:32.160Z,25.43
2023-05-15T15:42:58.808Z,25.34
2023-05-15T15:45:25.553Z,25.34
2023-05-15T15:47:52.359Z,25.28
2023-05-15T15:50:19.228Z,24.98
2023-05-15T15:52:46.846Z,25.14
2023-05-15T15:55:15.486Z,24.51
2023-05-15T15:57:42.197Z,24.54
2023-05-15T16:00:09.801Z,24.81
2023-05-15T16:02:40.446Z,24.36
2023-05-15T16:05:07.970Z,24.61
2023-05-15T16:07:35.030Z,24.40
2023-05-15T16:10:11.837Z,24.25
2023-05-15T16:12:40.800Z,24.11
2023-05-15T16:15:21.768Z,23.92
2023-05-15T16:17:52.842Z,23.88
2023-05-15T16:20:20.177Z,23.77
2023-05-15T16:22:46.874Z,23.58
2023-05-15T16:25:13.532Z,23.37
2023-05-15T16:27:43.484Z,23.20
2023-05-15T16:30:11.734Z,23.23
2023-05-15T16:32:38.537Z,23.19
2023-05-15T16:35:48.541Z,23.08
2023-05-15T16:38:15.962Z,22.93
2023-05-15T16:40:42.943Z,22.79
2023-05-15T16:43:09.859Z,22.83
2023-05-15T16:45:36.598Z,22.62
2023-05-15T16:48:03.667Z,22.48
2023-05-15T16:50:31.967Z,22.24
2023-05-15T16:52:59.270Z,22.07
2023-05-15T16:55:26.039Z,21.86
2023-05-15T16:57:52.743Z,21.72
2023-05-15T17:00:21.161Z,21.37
2023-05-15T17:02:48.727Z,21.37
2023-05-15T17:05:15.827Z,21.19
2023-05-15T17:07:43.998Z,21.12
2023-05-15T17:10:12.217Z,21.02
2023-05-15T17:12:39.080Z,20.94
2023-05-15T17:15:06.327Z,20.85
2023-05-15T17:17:32.979Z,20.83
2023-05-15T17:20:02.425Z,20.55
2023-05-15T17:22:30.014Z,20.55
2023-05-15T17:24:56.778Z,20.67
2023-05-15T17:27:23.466Z,20.63
2023-05-15T17:30:42.602Z,20.60
2023-05-15T17:41:59.160Z,20.18
2023-05-15T17:44:29.908Z,20.12
2023-05-15T17:46:57.690Z,20.01
2023-05-15T17:49:24.779Z,19.97
2023-05-15T17:51:51.549Z,19.94
2023-05-15T17:54:18.710Z,19.81
2023-05-15T17:56:45.509Z,19.77
2023-05-15T17:59:12.346Z,19.79
2023-05-15T18:01:39.038Z,19.77
2023-05-15T18:04:05.884Z,19.70
2023-05-15T18:06:34.365Z,19.61
2023-05-15T18:09:01.447Z,19.64
2023-05-15T18:11:28.150Z,19.53
2023-05-15T18:13:54.963Z,19.51
2023-05-15T18:16:21.737Z,19.42
2023-05-15T18:18:49.483Z,19.31
2023-05-15T18:21:16.337Z,19.26
2023-05-15T18:23:42.955Z,19.23
2023-05-15T18:26:10.505Z,19.21
2023-05-15T18:28:48.140Z,19.19
2023-05-15T18:31:23.429Z,19.02
2023-05-15T18:33:51.516Z,19.09
2023-05-15T18:36:22.517Z,18.87
2023-05-15T18:38:49.593Z,18.91
2023-05-15T18:41:16.339Z,18.82
2023-05-15T18:43:42.946Z,18.75
2023-05-15T18:46:09.616Z,18.66
2023-05-15T18:48:36.364Z,18.60
2023-05-15T18:51:03.319Z,18.52
2023-05-15T18:53:30.010Z,18.55
2023-05-15T18:55:56.655Z,18.47
2023-05-15T18:58:23.276Z,18.29
2023-05-15T19:00:50.060Z,18.08
2023-05-15T19:03:17.011Z,18.00
2023-05-15T19:05:43.895Z,18.13
2023-05-15T19:08:13.603Z,17.85
2023-05-15T19:10:40.437Z,18.10
2023-05-15T19:13:07.219Z,17.95
2023-05-15T19:15:33.994Z,17.98
2023-05-15T19:18:00.826Z,17.89
2023-05-15T19:20:27.914Z,17.88
2023-05-15T19:22:54.919Z,17.68
2023-05-15T19:25:21.635Z,17.78
2023-05-15T19:27:50.853Z,17.82
2023-05-15T19:30:17.572Z,17.68
2023-05-15T19:32:44.348Z,17.65
2023-05-15T19:35:11.431Z,17.60
2023-05-15T19:37:38.052Z,17.61
2023-05-15T19:40:06.052Z,17.61
2023-05-15T19:42:32.707Z,17.76
2023-05-15T19:44:59.374Z,17.94
2023-05-15T19:47:26.854Z,17.81
2023-05-15T19:49:53.670Z,18.00
2023-05-15T19:52:20.478Z,18.11
2023-05-15T19:54:47.370Z,18.16
2023-05-15T19:57:14.044Z,18.20
2023-05-15T19:59:40.776Z,18.12
2023-05-15T20:02:10.654Z,18.12
2023-05-15T20:04:37.594Z,18.10
2023-05-15T20:07:04.523Z,18.18
2023-05-15T20:09:31.278Z,18.12
2023-05-15T20:11:58.006Z,18.05
2023-05-15T20:14:24.834Z,18.13
2023-05-15T20:16:51.444Z,18.06
2023-05-15T20:19:22.141Z,18.02
2023-05-15T20:21:49.183Z,18.09
2023-05-15T20:24:18.305Z,18.06
2023-05-15T20:26:45.485Z,17.94
2023-05-15T20:29:12.309Z,17.99
2023-05-15T20:31:40.663Z,17.89
2023-05-15T20:34:08.368Z,18.09
2023-05-15T20:36:36.053Z,17.94
2023-05-15T20:39:05.815Z,17.88
2023-05-15T20:41:37.180Z,17.84
2023-05-15T20:44:04.157Z,17.81
2023-05-15T20:46:31.041Z,17.81
2023-05-15T20:48:58.016Z,17.63
2023-05-15T20:51:25.016Z,17.69
2023-05-15T20:53:51.689Z,17.58
2023-05-15T20:56:18.673Z,17.68
2023-05-15T20:58:45.455Z,17.61
2023-05-15T21:01:12.226Z,17.53
2023-05-15T21:03:39.038Z,17.61
2023-05-15T21:06:06.094Z,17.66
2023-05-15T21:08:32.872Z,17.59
2023-05-15T21:10:59.589Z,17.48
2023-05-15T21:13:26.363Z,17.34
2023-05-15T21:15:53.323Z,17.24
2023-05-15T21:18:20.086Z,17.23
2023-05-15T21:20:46.746Z,17.14
2023-05-15T21:23:13.579Z,17.11
2023-05-15T21:25:42.482Z,17.04
2023-05-15T21:28:10.800Z,17.00
2023-05-15T21:30:37.447Z,17.00
2023-05-15T21:33:04.258Z,16.84
2023-05-15T21:35:31.943Z,16.92
2023-05-15T21:37:58.929Z,16.73
2023-05-15T21:40:25.941Z,16.70
2023-05-15T21:42:52.930Z,16.68
2023-05-15T21:45:19.600Z,16.63
2023-05-15T21:47:46.396Z,16.69
2023-05-15T21:50:13.161Z,16.64
2023-05-15T21:52:40.005Z,16.58
2023-05-15T21:55:07.331Z,16.46
2023-05-15T21:57:33.917Z,16.49
2023-05-15T22:00:00.694Z,16.32
2023-05-15T22:02:27.469Z,16.33
2023-05-15T22:04:54.293Z,16.38
2023-05-15T22:07:20.945Z,16.34
2023-05-15T22:09:47.720Z,16.34
2023-05-15T22:12:14.427Z,16.30
2023-05-15T22:14:57.114Z,16.23
2023-05-15T22:17:27.355Z,16.21
2023-05-15T22:19:54.209Z,16.09
2023-05-15T22:22:21.048Z,16.14
2023-05-15T22:24:48.075Z,16.22
2023-05-15T22:27:16.807Z,15.90
2023-05-15T22:29:43.991Z,16.23
2023-05-15T22:32:10.857Z,16.19
2023-05-15T22:34:37.579Z,16.13
2023-05-15T22:37:04.556Z,16.13
2023-05-15T22:39:31.335Z,16.08
2023-05-15T22:41:58.049Z,16.07
2023-05-15T22:44:24.708Z,15.96
2023-05-15T22:46:51.493Z,15.95
2023-05-15T22:49:23.660Z,15.90
2023-05-15T22:51:50.540Z,16.06
2023-05-15T22:54:21.698Z,15.98
2023-05-15T22:56:50.180Z,15.88
2023-05-15T22:59:17.009Z,15.93
2023-05-15T23:01:44.625Z,15.91
2023-05-15T23:04:11.768Z,15.78
2023-05-15T23:06:38.917Z,15.76
2023-05-15T23:09:05.638Z,15.72
2023-05-15T23:11:32.308Z,15.74
2023-05-15T23:13:59.023Z,15.67
2023-05-15T23:16:25.932Z,15.58
2023-05-15T23:18:53.041Z,15.58
2023-05-15T23:21:19.954Z,15.47
2023-05-15T23:23:47.798Z,15.45
2023-05-15T23:26:14.761Z,15.40
2023-05-15T23:28:41.492Z,15.34
2023-05-15T23:31:08.233Z,15.14
2023-05-15T23:33:35.216Z,15.26
2023-05-15T23:36:02.241Z,15.15
2023-05-15T23:38:29.010Z,15.15
2023-05-15T23:40:55.683Z,15.13
2023-05-15T23:43:22.414Z,15.16
2023-05-15T23:45:51.565Z,15.04
2023-05-15T23:48:18.347Z,15.07
2023-05-15T23:50:45.317Z,15.16
2023-05-15T23:53:12.025Z,15.21
2023-05-15T23:55:38.678Z,15.20
2023-05-15T23:58:05.590Z,15.09
